sensor_id;sensor_type;location;lat;lon;timestamp;P1;durP1;ratioP1;P2;durP2;ratioP2
8909;SDS011;4490;49.072;8.804;2023-08-06T00:00:04;6.07;;;4.03;;
8909;SDS011;4490;49.072;8.804;2023-08-06T00:02:30;5.23;;;4.27;;
8909;SDS011;4490;49.072;8.804;2023-08-06T00:04:56;7.13;;;4.60;;
8909;SDS011;4490;49.072;8.804;2023-08-06T00:07:22;5.73;;;4.40;;
8909;SDS011;4490;49.072;8.804;2023-08-06T00:09:47;4.50;;;3.73;;
8909;SDS011;4490;49.072;8.804;2023-08-06T00:12:13;5.77;;;3.90;;
8909;SDS011;4490;49.072;8.804;2023-08-06T00:14:39;4.47;;;3.50;;
8909;SDS011;4490;49.072;8.804;2023-08-06T00:17:04;3.90;;;3.60;;
8909;SDS011;4490;49.072;8.804;2023-08-06T00:19:30;5.03;;;3.40;;
8909;SDS011;4490;49.072;8.804;2023-08-06T00:21:57;3.63;;;3.33;;
8909;SDS011;4490;49.072;8.804;2023-08-06T00:24:22;4.10;;;3.70;;
8909;SDS011;4490;49.072;8.804;2023-08-06T00:26:48;5.40;;;3.70;;
8909;SDS011;4490;49.072;8.804;2023-08-06T00:29:13;5.40;;;3.80;;
8909;SDS011;4490;49.072;8.804;2023-08-06T00:31:39;7.60;;;4.47;;
8909;SDS011;4490;49.072;8.804;2023-08-06T00:34:05;5.47;;;4.10;;
8909;SDS011;4490;49.072;8.804;2023-08-06T00:36:30;7.20;;;4.27;;
8909;SDS011;4490;49.072;8.804;2023-08-06T00:38:56;4.87;;;3.73;;
8909;SDS011;4490;49.072;8.804;2023-08-06T00:41:21;4.37;;;3.97;;
8909;SDS011;4490;49.072;8.804;2023-08-06T00:43:47;5.07;;;3.37;;
8909;SDS011;4490;49.072;8.804;2023-08-06T00:46:13;5.63;;;3.50;;
8909;SDS011;4490;49.072;8.804;2023-08-06T00:48:39;5.93;;;3.60;;
8909;SDS011;4490;49.072;8.804;2023-08-06T00:51:06;5.67;;;3.30;;
8909;SDS011;4490;49.072;8.804;2023-08-06T00:53:32;4.20;;;3.33;;
8909;SDS011;4490;49.072;8.804;2023-08-06T00:55:57;5.37;;;3.40;;
8909;SDS011;4490;49.072;8.804;2023-08-06T00:58:24;6.13;;;3.40;;
8909;SDS011;4490;49.072;8.804;2023-08-06T01:00:50;5.10;;;3.60;;
8909;SDS011;4490;49.072;8.804;2023-08-06T01:03:15;8.30;;;3.77;;
8909;SDS011;4490;49.072;8.804;2023-08-06T01:05:41;6.03;;;3.23;;
8909;SDS011;4490;49.072;8.804;2023-08-06T01:14:08;4.77;;;3.60;;
8909;SDS011;4490;49.072;8.804;2023-08-06T01:16:43;3.70;;;3.40;;
8909;SDS011;4490;49.072;8.804;2023-08-06T01:19:16;4.27;;;3.20;;
8909;SDS011;4490;49.072;8.804;2023-08-06T01:21:42;5.77;;;3.50;;
8909;SDS011;4490;49.072;8.804;2023-08-06T01:24:08;4.00;;;3.60;;
8909;SDS011;4490;49.072;8.804;2023-08-06T01:26:39;5.97;;;3.20;;
8909;SDS011;4490;49.072;8.804;2023-08-06T01:29:15;4.13;;;3.20;;
8909;SDS011;4490;49.072;8.804;2023-08-06T01:31:48;5.07;;;3.30;;
8909;SDS011;4490;49.072;8.804;2023-08-06T01:34:17;3.30;;;3.00;;
8909;SDS011;4490;49.072;8.804;2023-08-06T01:36:48;3.23;;;2.90;;
8909;SDS011;4490;49.072;8.804;2023-08-06T01:39:15;7.07;;;3.23;;
8909;SDS011;4490;49.072;8.804;2023-08-06T01:41:40;4.90;;;3.20;;
8909;SDS011;4490;49.072;8.804;2023-08-06T01:44:06;3.43;;;3.13;;
8909;SDS011;4490;49.072;8.804;2023-08-06T01:46:32;3.07;;;2.80;;
8909;SDS011;4490;49.072;8.804;2023-08-06T01:48:57;3.33;;;3.03;;
8909;SDS011;4490;49.072;8.804;2023-08-06T01:51:23;4.87;;;2.80;;
8909;SDS011;4490;49.072;8.804;2023-08-06T01:53:48;3.70;;;3.30;;
8909;SDS011;4490;49.072;8.804;2023-08-06T01:56:14;4.23;;;3.40;;
8909;SDS011;4490;49.072;8.804;2023-08-06T01:58:39;4.20;;;3.50;;
8909;SDS011;4490;49.072;8.804;2023-08-06T02:01:05;3.30;;;3.00;;
8909;SDS011;4490;49.072;8.804;2023-08-06T02:03:31;3.37;;;2.80;;
8909;SDS011;4490;49.072;8.804;2023-08-06T02:05:56;3.17;;;2.87;;
8909;SDS011;4490;49.072;8.804;2023-08-06T02:08:22;5.77;;;3.03;;
8909;SDS011;4490;49.072;8.804;2023-08-06T02:10:47;3.77;;;3.30;;
8909;SDS011;4490;49.072;8.804;2023-08-06T02:13:13;4.03;;;3.00;;
8909;SDS011;4490;49.072;8.804;2023-08-06T02:15:45;3.83;;;2.93;;
8909;SDS011;4490;49.072;8.804;2023-08-06T02:18:14;5.30;;;2.90;;
8909;SDS011;4490;49.072;8.804;2023-08-06T02:20:40;3.33;;;3.00;;
8909;SDS011;4490;49.072;8.804;2023-08-06T02:23:06;3.17;;;2.87;;
8909;SDS011;4490;49.072;8.804;2023-08-06T02:25:32;4.60;;;2.83;;
8909;SDS011;4490;49.072;8.804;2023-08-06T02:27:58;3.97;;;3.03;;
8909;SDS011;4490;49.072;8.804;2023-08-06T02:30:23;3.27;;;2.90;;
8909;SDS011;4490;49.072;8.804;2023-08-06T02:32:49;5.33;;;3.20;;
8909;SDS011;4490;49.072;8.804;2023-08-06T02:35:15;4.10;;;2.97;;
8909;SDS011;4490;49.072;8.804;2023-08-06T02:37:40;5.10;;;3.00;;
8909;SDS011;4490;49.072;8.804;2023-08-06T02:40:06;3.47;;;2.70;;
8909;SDS011;4490;49.072;8.804;2023-08-06T02:42:32;3.37;;;3.07;;
8909;SDS011;4490;49.072;8.804;2023-08-06T02:44:58;3.70;;;2.93;;
8909;SDS011;4490;49.072;8.804;2023-08-06T02:47:23;3.30;;;3.00;;
8909;SDS011;4490;49.072;8.804;2023-08-06T02:49:49;4.07;;;3.00;;
8909;SDS011;4490;49.072;8.804;2023-08-06T02:52:14;5.03;;;3.03;;
8909;SDS011;4490;49.072;8.804;2023-08-06T02:54:40;3.90;;;2.80;;
8909;SDS011;4490;49.072;8.804;2023-08-06T02:57:06;3.13;;;2.70;;
8909;SDS011;4490;49.072;8.804;2023-08-06T02:59:31;3.67;;;2.70;;
8909;SDS011;4490;49.072;8.804;2023-08-06T03:01:57;3.20;;;2.70;;
8909;SDS011;4490;49.072;8.804;2023-08-06T03:04:23;3.00;;;2.77;;
8909;SDS011;4490;49.072;8.804;2023-08-06T03:06:49;3.03;;;2.73;;
8909;SDS011;4490;49.072;8.804;2023-08-06T03:09:15;5.10;;;2.53;;
8909;SDS011;4490;49.072;8.804;2023-08-06T03:11:41;3.47;;;2.50;;
8909;SDS011;4490;49.072;8.804;2023-08-06T03:14:07;4.40;;;2.73;;
8909;SDS011;4490;49.072;8.804;2023-08-06T03:16:33;2.83;;;2.50;;
8909;SDS011;4490;49.072;8.804;2023-08-06T03:18:58;2.67;;;2.40;;
8909;SDS011;4490;49.072;8.804;2023-08-06T03:21:24;3.73;;;2.40;;
8909;SDS011;4490;49.072;8.804;2023-08-06T03:23:50;6.67;;;3.10;;
8909;SDS011;4490;49.072;8.804;2023-08-06T03:26:15;3.93;;;2.57;;
8909;SDS011;4490;49.072;8.804;2023-08-06T03:28:41;5.73;;;2.40;;
8909;SDS011;4490;49.072;8.804;2023-08-06T03:31:07;5.87;;;2.30;;
8909;SDS011;4490;49.072;8.804;2023-08-06T03:33:32;3.60;;;2.50;;
8909;SDS011;4490;49.072;8.804;2023-08-06T03:35:58;3.27;;;2.23;;
8909;SDS011;4490;49.072;8.804;2023-08-06T03:38:23;3.07;;;2.70;;
8909;SDS011;4490;49.072;8.804;2023-08-06T03:40:49;5.30;;;2.50;;
8909;SDS011;4490;49.072;8.804;2023-08-06T03:43:15;5.10;;;2.50;;
8909;SDS011;4490;49.072;8.804;2023-08-06T03:45:41;3.07;;;2.27;;
8909;SDS011;4490;49.072;8.804;2023-08-06T03:48:07;5.10;;;2.30;;
8909;SDS011;4490;49.072;8.804;2023-08-06T03:50:33;3.40;;;2.37;;
8909;SDS011;4490;49.072;8.804;2023-08-06T03:52:58;3.27;;;1.97;;
8909;SDS011;4490;49.072;8.804;2023-08-06T03:55:24;4.37;;;2.17;;
8909;SDS011;4490;49.072;8.804;2023-08-06T03:57:49;2.53;;;1.97;;
8909;SDS011;4490;49.072;8.804;2023-08-06T04:00:15;3.93;;;2.30;;
8909;SDS011;4490;49.072;8.804;2023-08-06T04:02:41;7.30;;;1.87;;
8909;SDS011;4490;49.072;8.804;2023-08-06T04:05:07;3.93;;;1.80;;
8909;SDS011;4490;49.072;8.804;2023-08-06T04:07:33;4.33;;;2.00;;
8909;SDS011;4490;49.072;8.804;2023-08-06T04:10:00;3.33;;;1.80;;
8909;SDS011;4490;49.072;8.804;2023-08-06T04:12:27;3.50;;;1.57;;
8909;SDS011;4490;49.072;8.804;2023-08-06T04:14:53;2.67;;;1.53;;
8909;SDS011;4490;49.072;8.804;2023-08-06T04:17:20;3.77;;;1.80;;
8909;SDS011;4490;49.072;8.804;2023-08-06T04:19:47;2.83;;;1.80;;
8909;SDS011;4490;49.072;8.804;2023-08-06T04:22:15;3.40;;;1.53;;
8909;SDS011;4490;49.072;8.804;2023-08-06T04:24:41;3.50;;;1.70;;
8909;SDS011;4490;49.072;8.804;2023-08-06T04:27:08;2.70;;;1.83;;
8909;SDS011;4490;49.072;8.804;2023-08-06T04:29:34;2.60;;;1.50;;
8909;SDS011;4490;49.072;8.804;2023-08-06T04:32:00;3.27;;;1.33;;
8909;SDS011;4490;49.072;8.804;2023-08-06T04:34:26;3.97;;;1.80;;
8909;SDS011;4490;49.072;8.804;2023-08-06T04:36:51;2.60;;;1.43;;
8909;SDS011;4490;49.072;8.804;2023-08-06T04:39:17;4.10;;;1.57;;
8909;SDS011;4490;49.072;8.804;2023-08-06T04:41:43;4.97;;;1.83;;
8909;SDS011;4490;49.072;8.804;2023-08-06T04:44:09;4.03;;;1.57;;
8909;SDS011;4490;49.072;8.804;2023-08-06T04:46:35;4.23;;;1.57;;
8909;SDS011;4490;49.072;8.804;2023-08-06T04:49:00;2.53;;;1.70;;
8909;SDS011;4490;49.072;8.804;2023-08-06T04:51:26;6.57;;;1.80;;
8909;SDS011;4490;49.072;8.804;2023-08-06T04:53:51;2.27;;;1.67;;
8909;SDS011;4490;49.072;8.804;2023-08-06T04:56:17;6.27;;;1.80;;
8909;SDS011;4490;49.072;8.804;2023-08-06T04:58:43;5.20;;;1.60;;
8909;SDS011;4490;49.072;8.804;2023-08-06T05:01:08;2.67;;;1.67;;
8909;SDS011;4490;49.072;8.804;2023-08-06T05:03:34;3.53;;;1.70;;
8909;SDS011;4490;49.072;8.804;2023-08-06T05:06:00;3.50;;;1.40;;
8909;SDS011;4490;49.072;8.804;2023-08-06T05:08:25;3.10;;;1.80;;
8909;SDS011;4490;49.072;8.804;2023-08-06T05:10:51;3.63;;;1.67;;
8909;SDS011;4490;49.072;8.804;2023-08-06T05:13:16;3.23;;;1.50;;
8909;SDS011;4490;49.072;8.804;2023-08-06T05:15:42;2.10;;;1.40;;
8909;SDS011;4490;49.072;8.804;2023-08-06T05:18:10;2.80;;;1.80;;
8909;SDS011;4490;49.072;8.804;2023-08-06T05:20:37;4.53;;;1.50;;
8909;SDS011;4490;49.072;8.804;2023-08-06T05:23:06;3.53;;;1.43;;
8909;SDS011;4490;49.072;8.804;2023-08-06T05:25:31;1.67;;;1.47;;
8909;SDS011;4490;49.072;8.804;2023-08-06T05:27:59;3.03;;;1.73;;
8909;SDS011;4490;49.072;8.804;2023-08-06T05:30:26;1.87;;;1.50;;
8909;SDS011;4490;49.072;8.804;2023-08-06T05:32:52;3.00;;;1.43;;
8909;SDS011;4490;49.072;8.804;2023-08-06T05:35:17;2.30;;;1.50;;
8909;SDS011;4490;49.072;8.804;2023-08-06T05:37:43;3.17;;;1.37;;
8909;SDS011;4490;49.072;8.804;2023-08-06T05:40:09;3.33;;;1.47;;
8909;SDS011;4490;49.072;8.804;2023-08-06T05:42:34;2.97;;;1.50;;
8909;SDS011;4490;49.072;8.804;2023-08-06T05:45:00;5.77;;;1.33;;
8909;SDS011;4490;49.072;8.804;2023-08-06T05:47:25;2.70;;;1.50;;
8909;SDS011;4490;49.072;8.804;2023-08-06T05:49:51;2.70;;;1.50;;
8909;SDS011;4490;49.072;8.804;2023-08-06T05:52:17;4.30;;;1.80;;
8909;SDS011;4490;49.072;8.804;2023-08-06T05:54:42;2.47;;;1.33;;
8909;SDS011;4490;49.072;8.804;2023-08-06T05:57:08;2.07;;;1.50;;
8909;SDS011;4490;49.072;8.804;2023-08-06T05:59:33;1.30;;;1.20;;
8909;SDS011;4490;49.072;8.804;2023-08-06T06:01:59;2.83;;;1.40;;
8909;SDS011;4490;49.072;8.804;2023-08-06T06:04:25;1.57;;;1.47;;
8909;SDS011;4490;49.072;8.804;2023-08-06T06:06:50;3.23;;;1.50;;
8909;SDS011;4490;49.072;8.804;2023-08-06T06:09:16;1.33;;;1.20;;
8909;SDS011;4490;49.072;8.804;2023-08-06T06:11:41;1.33;;;1.20;;
8909;SDS011;4490;49.072;8.804;2023-08-06T06:14:07;1.83;;;1.27;;
8909;SDS011;4490;49.072;8.804;2023-08-06T06:16:33;1.33;;;1.23;;
8909;SDS011;4490;49.072;8.804;2023-08-06T06:18:59;1.30;;;1.17;;
8909;SDS011;4490;49.072;8.804;2023-08-06T06:21:25;1.70;;;1.10;;
8909;SDS011;4490;49.072;8.804;2023-08-06T06:23:50;3.30;;;1.30;;
8909;SDS011;4490;49.072;8.804;2023-08-06T06:26:19;2.00;;;1.17;;
8909;SDS011;4490;49.072;8.804;2023-08-06T06:28:45;1.27;;;1.10;;
8909;SDS011;4490;49.072;8.804;2023-08-06T06:31:10;1.47;;;1.10;;
8909;SDS011;4490;49.072;8.804;2023-08-06T06:33:36;4.47;;;1.07;;
8909;SDS011;4490;49.072;8.804;2023-08-06T06:36:01;1.80;;;0.90;;
8909;SDS011;4490;49.072;8.804;2023-08-06T06:38:28;1.13;;;1.00;;
8909;SDS011;4490;49.072;8.804;2023-08-06T06:40:54;1.40;;;0.90;;
8909;SDS011;4490;49.072;8.804;2023-08-06T06:43:23;1.03;;;0.87;;
8909;SDS011;4490;49.072;8.804;2023-08-06T06:45:56;1.33;;;1.00;;
8909;SDS011;4490;49.072;8.804;2023-08-06T06:48:23;1.47;;;0.80;;
8909;SDS011;4490;49.072;8.804;2023-08-06T06:50:48;1.33;;;1.00;;
8909;SDS011;4490;49.072;8.804;2023-08-06T06:53:14;1.07;;;1.00;;
8909;SDS011;4490;49.072;8.804;2023-08-06T06:55:40;0.90;;;0.80;;
8909;SDS011;4490;49.072;8.804;2023-08-06T06:58:05;2.10;;;0.90;;
8909;SDS011;4490;49.072;8.804;2023-08-06T07:00:31;2.33;;;0.70;;
8909;SDS011;4490;49.072;8.804;2023-08-06T07:02:56;0.70;;;0.70;;
8909;SDS011;4490;49.072;8.804;2023-08-06T07:05:22;2.47;;;0.80;;
8909;SDS011;4490;49.072;8.804;2023-08-06T07:07:47;0.70;;;0.70;;
8909;SDS011;4490;49.072;8.804;2023-08-06T07:10:13;1.27;;;1.10;;
8909;SDS011;4490;49.072;8.804;2023-08-06T07:12:39;1.83;;;0.70;;
8909;SDS011;4490;49.072;8.804;2023-08-06T07:15:05;0.70;;;0.70;;
8909;SDS011;4490;49.072;8.804;2023-08-06T07:17:32;1.70;;;0.83;;
8909;SDS011;4490;49.072;8.804;2023-08-06T07:19:57;2.43;;;0.90;;
8909;SDS011;4490;49.072;8.804;2023-08-06T07:22:23;1.27;;;0.80;;
8909;SDS011;4490;49.072;8.804;2023-08-06T07:24:49;1.20;;;0.80;;
8909;SDS011;4490;49.072;8.804;2023-08-06T07:27:14;0.73;;;0.70;;
8909;SDS011;4490;49.072;8.804;2023-08-06T07:29:40;0.87;;;0.87;;
8909;SDS011;4490;49.072;8.804;2023-08-06T07:32:06;0.90;;;0.90;;
8909;SDS011;4490;49.072;8.804;2023-08-06T07:34:32;2.40;;;0.90;;
8909;SDS011;4490;49.072;8.804;2023-08-06T07:36:58;0.70;;;0.70;;
8909;SDS011;4490;49.072;8.804;2023-08-06T07:39:23;0.73;;;0.63;;
8909;SDS011;4490;49.072;8.804;2023-08-06T07:41:49;0.70;;;0.70;;
8909;SDS011;4490;49.072;8.804;2023-08-06T07:44:15;0.50;;;0.50;;
8909;SDS011;4490;49.072;8.804;2023-08-06T07:46:40;0.87;;;0.70;;
8909;SDS011;4490;49.072;8.804;2023-08-06T07:49:06;0.80;;;0.80;;
8909;SDS011;4490;49.072;8.804;2023-08-06T07:51:32;1.03;;;0.77;;
8909;SDS011;4490;49.072;8.804;2023-08-06T07:53:58;1.17;;;0.70;;
8909;SDS011;4490;49.072;8.804;2023-08-06T07:56:23;0.87;;;0.80;;
8909;SDS011;4490;49.072;8.804;2023-08-06T07:58:49;1.27;;;0.90;;
8909;SDS011;4490;49.072;8.804;2023-08-06T08:01:14;0.70;;;0.70;;
8909;SDS011;4490;49.072;8.804;2023-08-06T08:03:40;0.70;;;0.70;;
8909;SDS011;4490;49.072;8.804;2023-08-06T08:06:05;1.00;;;0.67;;
8909;SDS011;4490;49.072;8.804;2023-08-06T08:08:31;0.80;;;0.80;;
8909;SDS011;4490;49.072;8.804;2023-08-06T08:10:57;0.80;;;0.80;;
8909;SDS011;4490;49.072;8.804;2023-08-06T08:13:24;0.70;;;0.70;;
8909;SDS011;4490;49.072;8.804;2023-08-06T08:15:49;1.33;;;0.70;;
8909;SDS011;4490;49.072;8.804;2023-08-06T08:18:15;0.63;;;0.63;;
8909;SDS011;4490;49.072;8.804;2023-08-06T08:20:40;0.70;;;0.70;;
8909;SDS011;4490;49.072;8.804;2023-08-06T08:23:06;0.60;;;0.60;;
8909;SDS011;4490;49.072;8.804;2023-08-06T08:25:32;0.80;;;0.80;;
8909;SDS011;4490;49.072;8.804;2023-08-06T08:27:59;0.90;;;0.73;;
8909;SDS011;4490;49.072;8.804;2023-08-06T08:30:24;0.60;;;0.60;;
8909;SDS011;4490;49.072;8.804;2023-08-06T08:32:50;0.63;;;0.60;;
8909;SDS011;4490;49.072;8.804;2023-08-06T08:35:16;0.60;;;0.60;;
8909;SDS011;4490;49.072;8.804;2023-08-06T08:37:42;0.53;;;0.53;;
8909;SDS011;4490;49.072;8.804;2023-08-06T08:40:08;0.80;;;0.80;;
8909;SDS011;4490;49.072;8.804;2023-08-06T08:42:35;0.50;;;0.50;;
8909;SDS011;4490;49.072;8.804;2023-08-06T08:45:02;0.83;;;0.70;;
8909;SDS011;4490;49.072;8.804;2023-08-06T08:47:29;1.00;;;0.70;;
8909;SDS011;4490;49.072;8.804;2023-08-06T08:49:56;0.80;;;0.70;;
8909;SDS011;4490;49.072;8.804;2023-08-06T08:52:22;0.60;;;0.60;;
8909;SDS011;4490;49.072;8.804;2023-08-06T08:54:50;0.63;;;0.63;;
8909;SDS011;4490;49.072;8.804;2023-08-06T08:57:17;0.70;;;0.70;;
8909;SDS011;4490;49.072;8.804;2023-08-06T08:59:43;2.63;;;0.60;;
8909;SDS011;4490;49.072;8.804;2023-08-06T09:02:10;0.70;;;0.70;;
8909;SDS011;4490;49.072;8.804;2023-08-06T09:04:37;0.77;;;0.60;;
8909;SDS011;4490;49.072;8.804;2023-08-06T09:07:05;1.00;;;0.77;;
8909;SDS011;4490;49.072;8.804;2023-08-06T09:09:35;1.37;;;0.60;;
8909;SDS011;4490;49.072;8.804;2023-08-06T09:12:05;0.70;;;0.70;;
8909;SDS011;4490;49.072;8.804;2023-08-06T09:14:37;0.73;;;0.70;;
8909;SDS011;4490;49.072;8.804;2023-08-06T09:17:03;2.00;;;0.90;;
8909;SDS011;4490;49.072;8.804;2023-08-06T09:19:30;0.90;;;0.90;;
8909;SDS011;4490;49.072;8.804;2023-08-06T09:21:56;1.30;;;0.90;;
8909;SDS011;4490;49.072;8.804;2023-08-06T09:24:30;0.93;;;0.93;;
8909;SDS011;4490;49.072;8.804;2023-08-06T09:26:55;0.77;;;0.60;;
8909;SDS011;4490;49.072;8.804;2023-08-06T09:29:21;0.70;;;0.70;;
8909;SDS011;4490;49.072;8.804;2023-08-06T09:31:48;0.73;;;0.73;;
8909;SDS011;4490;49.072;8.804;2023-08-06T09:34:16;1.57;;;0.87;;
8909;SDS011;4490;49.072;8.804;2023-08-06T09:36:46;0.83;;;0.80;;
8909;SDS011;4490;49.072;8.804;2023-08-06T09:39:17;0.80;;;0.80;;
8909;SDS011;4490;49.072;8.804;2023-08-06T09:41:47;0.80;;;0.80;;
8909;SDS011;4490;49.072;8.804;2023-08-06T09:44:16;1.13;;;0.77;;
8909;SDS011;4490;49.072;8.804;2023-08-06T09:46:53;0.70;;;0.70;;
8909;SDS011;4490;49.072;8.804;2023-08-06T09:49:21;1.33;;;0.60;;
8909;SDS011;4490;49.072;8.804;2023-08-06T09:51:50;0.80;;;0.80;;
8909;SDS011;4490;49.072;8.804;2023-08-06T09:54:17;0.80;;;0.80;;
8909;SDS011;4490;49.072;8.804;2023-08-06T09:56:45;0.57;;;0.57;;
8909;SDS011;4490;49.072;8.804;2023-08-06T09:59:12;0.63;;;0.63;;
8909;SDS011;4490;49.072;8.804;2023-08-06T10:01:39;0.73;;;0.73;;
8909;SDS011;4490;49.072;8.804;2023-08-06T10:04:05;0.83;;;0.83;;
8909;SDS011;4490;49.072;8.804;2023-08-06T10:06:36;1.37;;;0.80;;
8909;SDS011;4490;49.072;8.804;2023-08-06T10:09:03;0.90;;;0.90;;
8909;SDS011;4490;49.072;8.804;2023-08-06T10:11:29;0.80;;;0.80;;
8909;SDS011;4490;49.072;8.804;2023-08-06T10:14:04;0.80;;;0.80;;
8909;SDS011;4490;49.072;8.804;2023-08-06T10:16:46;0.80;;;0.80;;
8909;SDS011;4490;49.072;8.804;2023-08-06T10:19:13;0.70;;;0.70;;
8909;SDS011;4490;49.072;8.804;2023-08-06T10:21:41;0.80;;;0.80;;
8909;SDS011;4490;49.072;8.804;2023-08-06T10:24:27;0.90;;;0.90;;
8909;SDS011;4490;49.072;8.804;2023-08-06T10:26:55;0.80;;;0.80;;
8909;SDS011;4490;49.072;8.804;2023-08-06T10:29:35;0.80;;;0.80;;
8909;SDS011;4490;49.072;8.804;2023-08-06T10:32:02;0.80;;;0.80;;
8909;SDS011;4490;49.072;8.804;2023-08-06T10:37:24;1.00;;;0.90;;
8909;SDS011;4490;49.072;8.804;2023-08-06T10:40:00;0.80;;;0.80;;
8909;SDS011;4490;49.072;8.804;2023-08-06T10:42:29;1.00;;;1.00;;
8909;SDS011;4490;49.072;8.804;2023-08-06T10:45:11;0.80;;;0.80;;
8909;SDS011;4490;49.072;8.804;2023-08-06T10:47:38;1.00;;;1.00;;
8909;SDS011;4490;49.072;8.804;2023-08-06T10:50:07;1.53;;;1.00;;
8909;SDS011;4490;49.072;8.804;2023-08-06T10:52:35;1.77;;;0.83;;
8909;SDS011;4490;49.072;8.804;2023-08-06T10:55:01;1.23;;;1.13;;
8909;SDS011;4490;49.072;8.804;2023-08-06T10:57:27;1.17;;;1.17;;
8909;SDS011;4490;49.072;8.804;2023-08-06T10:59:52;1.20;;;1.10;;
8909;SDS011;4490;49.072;8.804;2023-08-06T11:02:18;1.97;;;1.40;;
8909;SDS011;4490;49.072;8.804;2023-08-06T11:04:44;1.63;;;1.40;;
8909;SDS011;4490;49.072;8.804;2023-08-06T11:07:09;1.50;;;1.30;;
8909;SDS011;4490;49.072;8.804;2023-08-06T11:09:35;1.50;;;1.40;;
8909;SDS011;4490;49.072;8.804;2023-08-06T11:12:02;3.43;;;1.50;;
8909;SDS011;4490;49.072;8.804;2023-08-06T11:14:31;1.70;;;1.47;;
8909;SDS011;4490;49.072;8.804;2023-08-06T11:16:57;1.90;;;1.50;;
8909;SDS011;4490;49.072;8.804;2023-08-06T11:19:22;1.80;;;1.70;;
8909;SDS011;4490;49.072;8.804;2023-08-06T11:21:51;1.80;;;1.70;;
8909;SDS011;4490;49.072;8.804;2023-08-06T11:24:17;5.33;;;1.63;;
8909;SDS011;4490;49.072;8.804;2023-08-06T11:26:42;2.37;;;1.70;;
8909;SDS011;4490;49.072;8.804;2023-08-06T11:29:09;1.60;;;1.50;;
8909;SDS011;4490;49.072;8.804;2023-08-06T11:31:35;1.80;;;1.53;;
8909;SDS011;4490;49.072;8.804;2023-08-06T11:34:01;1.70;;;1.50;;
8909;SDS011;4490;49.072;8.804;2023-08-06T11:36:34;3.73;;;1.97;;
8909;SDS011;4490;49.072;8.804;2023-08-06T11:39:05;2.40;;;2.00;;
8909;SDS011;4490;49.072;8.804;2023-08-06T11:41:31;5.03;;;1.90;;
8909;SDS011;4490;49.072;8.804;2023-08-06T11:43:57;1.97;;;1.80;;
8909;SDS011;4490;49.072;8.804;2023-08-06T11:46:23;2.30;;;2.10;;
8909;SDS011;4490;49.072;8.804;2023-08-06T11:48:52;3.63;;;2.07;;
8909;SDS011;4490;49.072;8.804;2023-08-06T11:51:25;2.40;;;1.90;;
8909;SDS011;4490;49.072;8.804;2023-08-06T11:53:55;3.63;;;2.13;;
8909;SDS011;4490;49.072;8.804;2023-08-06T11:56:21;4.80;;;2.40;;
8909;SDS011;4490;49.072;8.804;2023-08-06T11:58:47;3.07;;;2.40;;
8909;SDS011;4490;49.072;8.804;2023-08-06T12:01:15;2.50;;;2.30;;
8909;SDS011;4490;49.072;8.804;2023-08-06T12:03:41;2.93;;;2.20;;
8909;SDS011;4490;49.072;8.804;2023-08-06T12:06:06;3.50;;;2.73;;
8909;SDS011;4490;49.072;8.804;2023-08-06T12:08:32;3.00;;;2.70;;
8909;SDS011;4490;49.072;8.804;2023-08-06T12:10:58;5.37;;;2.53;;
8909;SDS011;4490;49.072;8.804;2023-08-06T12:13:24;3.90;;;2.60;;
8909;SDS011;4490;49.072;8.804;2023-08-06T12:15:49;3.17;;;2.40;;
8909;SDS011;4490;49.072;8.804;2023-08-06T12:18:17;2.90;;;2.60;;
8909;SDS011;4490;49.072;8.804;2023-08-06T12:20:43;4.33;;;2.33;;
8909;SDS011;4490;49.072;8.804;2023-08-06T12:23:09;5.37;;;2.77;;
8909;SDS011;4490;49.072;8.804;2023-08-06T12:25:35;3.37;;;2.50;;
8909;SDS011;4490;49.072;8.804;2023-08-06T12:28:00;3.07;;;2.17;;
8909;SDS011;4490;49.072;8.804;2023-08-06T12:30:26;5.63;;;3.30;;
8909;SDS011;4490;49.072;8.804;2023-08-06T12:32:51;5.60;;;2.50;;
8909;SDS011;4490;49.072;8.804;2023-08-06T12:35:17;3.80;;;3.27;;
8909;SDS011;4490;49.072;8.804;2023-08-06T12:37:43;4.80;;;2.60;;
8909;SDS011;4490;49.072;8.804;2023-08-06T12:40:10;4.33;;;2.80;;
8909;SDS011;4490;49.072;8.804;2023-08-06T12:42:36;4.23;;;2.70;;
8909;SDS011;4490;49.072;8.804;2023-08-06T12:45:01;3.13;;;2.40;;
8909;SDS011;4490;49.072;8.804;2023-08-06T12:47:27;3.53;;;2.57;;
8909;SDS011;4490;49.072;8.804;2023-08-06T12:49:53;2.93;;;2.30;;
8909;SDS011;4490;49.072;8.804;2023-08-06T12:52:18;3.60;;;2.50;;
8909;SDS011;4490;49.072;8.804;2023-08-06T12:54:44;5.07;;;2.47;;
8909;SDS011;4490;49.072;8.804;2023-08-06T12:57:11;3.67;;;2.60;;
8909;SDS011;4490;49.072;8.804;2023-08-06T12:59:36;2.60;;;2.40;;
8909;SDS011;4490;49.072;8.804;2023-08-06T13:02:02;4.20;;;2.40;;
8909;SDS011;4490;49.072;8.804;2023-08-06T13:04:28;3.57;;;2.53;;
8909;SDS011;4490;49.072;8.804;2023-08-06T13:06:54;4.27;;;2.20;;
8909;SDS011;4490;49.072;8.804;2023-08-06T13:09:20;3.83;;;2.50;;
8909;SDS011;4490;49.072;8.804;2023-08-06T13:11:45;4.17;;;2.40;;
8909;SDS011;4490;49.072;8.804;2023-08-06T13:14:12;4.10;;;2.50;;
8909;SDS011;4490;49.072;8.804;2023-08-06T13:16:40;4.00;;;2.10;;
8909;SDS011;4490;49.072;8.804;2023-08-06T13:19:06;3.33;;;2.27;;
8909;SDS011;4490;49.072;8.804;2023-08-06T13:21:33;4.33;;;2.20;;
8909;SDS011;4490;49.072;8.804;2023-08-06T13:24:03;4.17;;;2.50;;
8909;SDS011;4490;49.072;8.804;2023-08-06T13:26:29;2.57;;;2.00;;
8909;SDS011;4490;49.072;8.804;2023-08-06T13:28:56;2.10;;;1.90;;
8909;SDS011;4490;49.072;8.804;2023-08-06T13:31:22;1.90;;;1.70;;
8909;SDS011;4490;49.072;8.804;2023-08-06T13:33:48;3.67;;;2.20;;
8909;SDS011;4490;49.072;8.804;2023-08-06T13:36:15;2.30;;;1.90;;
8909;SDS011;4490;49.072;8.804;2023-08-06T13:38:41;1.70;;;1.53;;
8909;SDS011;4490;49.072;8.804;2023-08-06T13:41:06;1.70;;;1.60;;
8909;SDS011;4490;49.072;8.804;2023-08-06T13:43:32;2.27;;;1.77;;
8909;SDS011;4490;49.072;8.804;2023-08-06T13:45:58;2.83;;;1.70;;
8909;SDS011;4490;49.072;8.804;2023-08-06T13:48:23;2.27;;;1.43;;
8909;SDS011;4490;49.072;8.804;2023-08-06T13:50:49;2.17;;;1.70;;
8909;SDS011;4490;49.072;8.804;2023-08-06T13:53:15;1.70;;;1.60;;
8909;SDS011;4490;49.072;8.804;2023-08-06T13:55:40;1.83;;;1.50;;
8909;SDS011;4490;49.072;8.804;2023-08-06T13:58:06;1.40;;;1.30;;
8909;SDS011;4490;49.072;8.804;2023-08-06T14:00:31;1.20;;;1.20;;
8909;SDS011;4490;49.072;8.804;2023-08-06T14:02:57;2.10;;;1.30;;
8909;SDS011;4490;49.072;8.804;2023-08-06T14:05:23;1.40;;;1.33;;
8909;SDS011;4490;49.072;8.804;2023-08-06T14:07:48;2.20;;;1.40;;
8909;SDS011;4490;49.072;8.804;2023-08-06T14:10:14;2.50;;;1.30;;
8909;SDS011;4490;49.072;8.804;2023-08-06T14:12:40;1.30;;;1.20;;
8909;SDS011;4490;49.072;8.804;2023-08-06T14:15:05;1.90;;;1.53;;
8909;SDS011;4490;49.072;8.804;2023-08-06T14:17:31;1.40;;;1.30;;
8909;SDS011;4490;49.072;8.804;2023-08-06T14:19:57;1.30;;;1.30;;
8909;SDS011;4490;49.072;8.804;2023-08-06T14:22:22;1.77;;;1.23;;
8909;SDS011;4490;49.072;8.804;2023-08-06T14:24:48;1.47;;;1.37;;
8909;SDS011;4490;49.072;8.804;2023-08-06T14:27:14;2.57;;;1.40;;
8909;SDS011;4490;49.072;8.804;2023-08-06T14:29:39;1.50;;;1.40;;
8909;SDS011;4490;49.072;8.804;2023-08-06T14:32:05;1.77;;;1.50;;
8909;SDS011;4490;49.072;8.804;2023-08-06T14:34:31;1.70;;;1.50;;
8909;SDS011;4490;49.072;8.804;2023-08-06T14:36:56;3.00;;;1.87;;
8909;SDS011;4490;49.072;8.804;2023-08-06T14:39:22;1.60;;;1.50;;
8909;SDS011;4490;49.072;8.804;2023-08-06T14:41:47;1.50;;;1.40;;
8909;SDS011;4490;49.072;8.804;2023-08-06T14:44:13;1.90;;;1.40;;
8909;SDS011;4490;49.072;8.804;2023-08-06T14:46:39;2.67;;;1.63;;
8909;SDS011;4490;49.072;8.804;2023-08-06T14:49:04;1.60;;;1.50;;
8909;SDS011;4490;49.072;8.804;2023-08-06T14:51:30;1.50;;;1.40;;
8909;SDS011;4490;49.072;8.804;2023-08-06T14:53:56;1.53;;;1.43;;
8909;SDS011;4490;49.072;8.804;2023-08-06T14:56:21;3.57;;;1.70;;
8909;SDS011;4490;49.072;8.804;2023-08-06T14:58:48;2.10;;;1.47;;
8909;SDS011;4490;49.072;8.804;2023-08-06T15:01:13;1.60;;;1.50;;
8909;SDS011;4490;49.072;8.804;2023-08-06T15:03:39;2.63;;;1.60;;
8909;SDS011;4490;49.072;8.804;2023-08-06T15:06:05;1.70;;;1.60;;
8909;SDS011;4490;49.072;8.804;2023-08-06T15:08:30;1.67;;;1.53;;
8909;SDS011;4490;49.072;8.804;2023-08-06T15:10:56;1.63;;;1.53;;
8909;SDS011;4490;49.072;8.804;2023-08-06T15:13:22;2.90;;;1.70;;
8909;SDS011;4490;49.072;8.804;2023-08-06T15:15:48;1.80;;;1.60;;
8909;SDS011;4490;49.072;8.804;2023-08-06T15:18:14;1.83;;;1.60;;